Nearby METAR Reports

 

KORD - Chicago O'hare, Illinois, USA
Distance from station: ESE 10mi, 16km
Updated: Sun, 22-Apr-2018 12:51am CDT
Overcast
Overcast
 Wind from calm
Wind: Calm
Temperature: 45°F , 7°C
Dew Point: 21°F , -6°C
Humidity: 39%
Barometer: 30.37 inHg , 1028.4 hPa
Clouds: Overcast
Visibility: 10 miles , 16 km
Cloud details: Mostly cloudy 13000 ft
Overcast 25000 ft
2018/04/22 05:51 KORD 220551Z 00000KT 10SM BKN130 OVC250 07/M06 A3037 RMK AO2 SLP286 T00671061 10094 20067 401280039 55010
KDPA - Chicago/Dupage, Illinois, USA
Distance from station: SW 11mi, 18km
Updated: Sun, 22-Apr-2018 12:52am CDT
Clear
Clear
 Wind from NE
Wind: NE 3 mph , 6 km/h
Temperature: 43°F , 6°C
Dew Point: 25°F , -4°C
Humidity: 49%
Barometer: 30.36 inHg , 1028.1 hPa
Clouds: Clear
Visibility: 10 miles , 16 km
2018/04/22 05:52 KDPA 220552Z 05003KT 10SM CLR 06/M04 A3036 RMK AO2 SLP285 T00561044 10106 20050 401390011 55009
 
KPWK - Palwaukee, Illinois, USA
Distance from station: ENE 12mi, 19km
Updated: Sun, 22-Apr-2018 12:52am CDT
Clear
Clear
 Wind from calm
Wind: Calm
Temperature: 45°F , 7°C
Dew Point: 23°F , -5°C
Humidity: 42%
Barometer: 30.40 inHg , 1029.5 hPa
Clouds: Clear
Visibility: 10 miles , 16 km
2018/04/22 05:52 KPWK 220552Z AUTO 00000KT 10SM CLR 07/M05 A3040 RMK AO2 SLP296 T00671050 10089 20050 401220017 55009
KMDW - Chicago, Illinois, USA
Distance from station: SE 26mi, 41km
Updated: Sun, 22-Apr-2018 12:53am CDT
Overcast
Overcast
 Wind from SE
Wind: SE 3 mph , 6 km/h
Temperature: 45°F , 7°C
Dew Point: 19°F , -7°C
Humidity: 37%
Barometer: 30.38 inHg , 1028.8 hPa
Clouds: Overcast
Visibility: 10 miles , 16 km
Cloud details: Overcast 20000 ft
2018/04/22 05:53 KMDW 220553Z 13003KT 10SM OVC200 07/M07 A3038 RMK AO2 SLP291 T00721067 10089 20072 401170050 55007
 
KARR - Chicago/Aurora, Illinois, USA
Distance from station: SW 27mi, 43km
Updated: Sun, 22-Apr-2018 12:52am CDT
Clear
Clear
 Wind from NE
Wind: NE 6 mph , 9 km/h
Temperature: 41°F , 5°C
Wind Chill: 37°F , 3°C
Dew Point: 27°F , -3°C
Humidity: 57%
Barometer: 30.35 inHg , 1027.8 hPa
Clouds: Clear
Visibility: 10 miles , 16 km
2018/04/22 05:52 KARR 220552Z AUTO 05005KT 10SM CLR 05/M03 A3035 RMK AO2 SLP282 T00501033 10117 20044 401390017 56011
KUGN - Waukegan, Illinois, USA
Distance from station: NNE 29mi, 47km
Updated: Sun, 22-Apr-2018 12:55am CDT
Clear
Clear
 Wind from calm
Wind: Calm
Temperature: 34°F , 1°C
Dew Point: 25°F , -4°C
Humidity: 70%
Barometer: 30.37 inHg , 1028.4 hPa
Clouds: Clear
Visibility: 10 miles , 16 km
2018/04/22 05:55 KUGN 220555Z AUTO 00000KT 10SM CLR 01/M04 A3037 RMK AO2 SLP291 T00111039 10061 20006 401221022 58007
 
KLOT - Romeoville/Chi, Illinois, USA
Distance from station: S 30mi, 49km
Updated: Sun, 22-Apr-2018 1:15am CDT
Clear
Clear
 Wind from ENE
Wind: ENE 7 mph , 11 km/h
Temperature: 43°F , 6°C
Wind Chill: 39°F , 4°C
Dew Point: 21°F , -6°C
Humidity: 42%
Barometer: 30.35 inHg , 1027.8 hPa
Clouds: Clear
Visibility: 10 miles , 16 km
2018/04/22 06:15 KLOT 220615Z AUTO 06006KT 10SM CLR 06/M06 A3035 RMK AO2 T00551056
KDKB - De Kalb, Illinois, USA
Distance from station: WSW 31mi, 50km
Updated: Sun, 22-Apr-2018 1:15am CDT
Partly cloudy
Partly cloudy
 Wind from NE
Wind: NE 6 mph , 9 km/h
Temperature: 41°F , 5°C
Wind Chill: 37°F , 3°C
Dew Point: 28°F , -2°C
Humidity: 61%
Barometer: 30.36 inHg , 1028.1 hPa
Clouds: Partly cloudy
Visibility: 10 miles , 16 km
Cloud details: Partly cloudy 12000 ft
2018/04/22 06:15 KDKB 220615Z AUTO 05005KT 10SM SCT120 05/M02 A3036 RMK AO2 T00511025
 
KJOT - Joliet, Illinois, USA
Distance from station: S 36mi, 58km
Updated: Sun, 22-Apr-2018 1:15am CDT
Clear
Clear
 Wind from NE
Wind: NE 5 mph , 7 km/h
Temperature: 45°F , 7°C
Wind Chill: 42°F , 6°C
Dew Point: 21°F , -6°C
Humidity: 39%
Barometer: 30.35 inHg , 1027.8 hPa
Clouds: Clear
Visibility: 10 miles , 16 km
2018/04/22 06:15 KJOT 220615Z AUTO 05004KT 10SM CLR 07/M06 A3035 RMK AO2 T00731060
KENW - Kenosha, Wisconsin, USA
Distance from station: NNE 40mi, 64km
Updated: Sun, 22-Apr-2018 12:53am CDT
Partly cloudy
Partly cloudy
 Wind from calm
Wind: Calm
Temperature: 39°F , 4°C
Dew Point: 27°F , -3°C
Humidity: 61%
Barometer: 30.37 inHg , 1028.4 hPa
Clouds: Partly cloudy
Visibility: 10 miles , 16 km
Cloud details: Partly cloudy 12000 ft
2018/04/22 05:53 KENW 220553Z AUTO 00000KT 10SM SCT120 04/M03 A3037 RMK AO2 SLP289 T00391033 10078 20028 401391011 58007
 
KC09 - Morris-Washburn, Illinois, USA
Distance from station: SSW 45mi, 72km
Updated: Sun, 22-Apr-2018 1:15am CDT
Mostly cloudy
Mostly cloudy
 Wind from calm
Wind: Calm
Temperature: 41°F , 5°C
Dew Point: 28°F , -2°C
Humidity: 61%
Barometer: 30.34 inHg , 1027.4 hPa
Clouds: Mostly cloudy
Visibility: 10 miles , 16 km
Cloud details: Mostly cloudy 12000 ft
2018/04/22 06:15 KC09 220615Z AUTO 00000KT 10SM BKN120 05/M02 A3034 RMK AO2 T00541022
KBUU - Burlington, Wisconsin, USA
Distance from station: NNW 46mi, 73km
Updated: Sun, 22-Apr-2018 1:15am CDT
Clear
Clear
 Wind from calm
Wind: Calm
Temperature: 34°F , 1°C
Dew Point: 27°F , -3°C
Humidity: 75%
Barometer: 30.38 inHg , 1028.8 hPa
Clouds: Clear
Visibility: 10 miles , 16 km
2018/04/22 06:15 KBUU 220615Z AUTO 00000KT 10SM CLR 01/M03 A3038 RMK AO2 T00051029
 
KGYY - Gary Regional, Indiana, USA
Distance from station: SE 46mi, 74km
Updated: Sun, 22-Apr-2018 1:15am CDT
Clear
Clear
 Wind from NNE
Wind: NNE 3 mph , 6 km/h
Temperature: 43°F , 6°C
Dew Point: 30°F , -1°C
Humidity: 61%
Barometer: 30.37 inHg , 1028.4 hPa
Clouds: Clear
Visibility: 10 miles , 16 km
2018/04/22 06:15 KGYY 220615Z AUTO 03003KT 10SM CLR 06/M01 A3037 RMK AO2 T00591011
KIGQ - Chicago/Lansing, Illinois, USA
Distance from station: SE 46mi, 74km
Updated: Sun, 22-Apr-2018 1:15am CDT
Clear
Clear
 Wind from calm
Wind: Calm
Temperature: 41°F , 5°C
Dew Point: 30°F , -1°C
Humidity: 66%
Barometer: 30.36 inHg , 1028.1 hPa
Clouds: Clear
Visibility: 10 miles , 16 km
2018/04/22 06:15 KIGQ 220615Z AUTO 00000KT 10SM CLR 05/M01 A3036 RMK AO2 T00511011